Time;durP1;ratioP1;P1;durP2;ratioP2;P2;SDS_P1;SDS_P2;PMS_P1;PMS_P2;Temp;Humidity;BMP_temperature;BMP_pressure;BME280_temperature;BME280_humidity;BME280_pressure;Samples;Min_cycle;Max_cycle;Signal;HPM_P1;HPM_P2
2024/01/17 00:01:13;;;;;;;20.77;17.80;;;;;;;-146.58;100.00;69501.63;5033432;28;20018;-66
2024/01/17 00:03:40;;;;;;;31.80;16.48;;;;;;;-146.58;100.00;69501.63;5031366;28;20048;-66
2024/01/17 00:06:05;;;;;;;20.38;16.88;;;;;;;-146.58;100.00;69501.63;5033299;28;20025;-66
2024/01/17 00:08:30;;;;;;;23.15;19.48;;;;;;;-146.58;100.00;69501.63;5031272;28;20029;-66
2024/01/17 00:10:56;;;;;;;20.63;17.20;;;;;;;-146.58;100.00;69501.63;5032690;28;20694;-66
2024/01/17 00:13:21;;;;;;;25.13;18.60;;;;;;;-146.58;100.00;69501.63;5032668;28;20029;-66
2024/01/17 00:15:47;;;;;;;19.33;16.80;;;;;;;-146.58;100.00;69501.63;5031427;28;20029;-66
2024/01/17 00:18:12;;;;;;;20.65;15.68;;;;;;;-146.58;100.00;69501.63;5032719;28;20026;-66
2024/01/17 00:20:37;;;;;;;22.95;16.60;;;;;;;-146.58;100.00;69501.63;5031201;28;20041;-66
2024/01/17 00:23:03;;;;;;;23.02;16.17;;;;;;;-146.58;100.00;69501.63;5032840;28;20021;-66
2024/01/17 00:25:28;;;;;;;29.13;17.02;;;;;;;-146.58;100.00;69501.63;5031195;28;20064;-66
2024/01/17 00:27:53;;;;;;;27.02;18.75;;;;;;;-146.58;100.00;69501.63;5032545;28;20022;-66
2024/01/17 00:30:19;;;;;;;23.25;17.98;;;;;;;-146.58;100.00;69501.63;5031367;28;20038;-66
2024/01/17 00:32:45;;;;;;;31.80;17.48;;;;;;;-146.58;100.00;69501.63;5031956;28;20021;-66
2024/01/17 00:35:11;;;;;;;28.63;18.27;;;;;;;-146.58;100.00;69501.63;5031245;28;20141;-66
2024/01/17 00:37:36;;;;;;;32.85;18.60;;;;;;;-146.58;100.00;69501.63;5032331;28;20025;-66
2024/01/17 00:40:01;;;;;;;23.65;17.60;;;;;;;-146.58;100.00;69501.63;5030871;28;20511;-66
2024/01/17 00:42:27;;;;;;;24.75;16.27;;;;;;;-146.58;100.00;69501.63;5032186;28;20026;-66
2024/01/17 00:44:53;;;;;;;19.80;16.13;;;;;;;-146.58;100.00;69501.63;5030099;28;20033;-66
2024/01/17 00:47:19;;;;;;;23.95;16.60;;;;;;;-146.58;100.00;69501.63;5032145;28;20021;-66
2024/01/17 00:49:44;;;;;;;26.23;18.05;;;;;;;-146.58;100.00;69501.63;5030870;28;20068;-66
2024/01/17 00:52:10;;;;;;;29.85;17.83;;;;;;;-146.58;100.00;69501.63;5032127;28;20014;-66
2024/01/17 00:54:35;;;;;;;22.88;17.67;;;;;;;-146.58;100.00;69501.63;5030286;28;20610;-66
2024/01/17 00:57:00;;;;;;;20.27;15.73;;;;;;;-146.58;100.00;69501.63;5032288;28;20057;-66
2024/01/17 00:59:26;;;;;;;26.25;16.85;;;;;;;-146.58;100.00;69501.63;5030842;28;20060;-66
2024/01/17 01:01:51;;;;;;;22.85;15.57;;;;;;;-146.58;100.00;69501.63;5031611;28;20053;-67
2024/01/17 01:04:17;;;;;;;21.33;18.77;;;;;;;-146.58;100.00;69501.63;5030548;28;20033;-67
2024/01/17 01:06:42;;;;;;;27.05;17.77;;;;;;;-146.58;100.00;69501.63;5031737;28;20491;-67
2024/01/17 01:09:09;;;;;;;18.35;15.60;;;;;;;-146.58;100.00;69501.63;5031840;28;20021;-67
2024/01/17 01:11:35;;;;;;;30.33;17.63;;;;;;;-146.58;100.00;69501.63;5030105;28;20053;-67
2024/01/17 01:14:01;;;;;;;24.55;16.55;;;;;;;-146.58;100.00;69501.63;5031965;28;20022;-67
2024/01/17 01:16:26;;;;;;;21.13;16.35;;;;;;;-146.58;100.00;69501.63;5030058;28;20103;-66
2024/01/17 01:18:51;;;;;;;26.38;16.67;;;;;;;-146.58;100.00;69501.63;5031762;28;20072;-67
2024/01/17 01:21:17;;;;;;;21.05;16.33;;;;;;;-146.58;100.00;69501.63;5030356;28;20145;-66
2024/01/17 01:23:43;;;;;;;22.65;15.48;;;;;;;-146.58;100.00;69501.63;5031156;28;20033;-67
2024/01/17 01:26:08;;;;;;;24.33;16.73;;;;;;;-146.58;100.00;69501.63;5030267;28;20045;-65
2024/01/17 01:28:34;;;;;;;20.10;16.92;;;;;;;-146.58;100.00;69501.63;5031473;28;20037;-65
2024/01/17 01:30:59;;;;;;;23.40;15.55;;;;;;;-146.58;100.00;69501.63;5029764;28;20528;-65
2024/01/17 01:33:25;;;;;;;22.27;16.48;;;;;;;-146.58;100.00;69501.63;5031359;28;20033;-64
2024/01/17 01:35:50;;;;;;;25.10;15.77;;;;;;;-146.58;100.00;69501.63;5029724;28;20044;-64
2024/01/17 01:38:15;;;;;;;31.70;18.98;;;;;;;-146.58;100.00;69501.63;5031157;28;20022;-64
2024/01/17 01:40:42;;;;;;;21.10;16.42;;;;;;;-146.58;100.00;69501.63;5029779;28;20037;-64
2024/01/17 01:43:18;;;;;;;28.55;18.60;;;;;;;-146.58;100.00;69501.63;5031344;28;20031;-64
2024/01/17 01:46:16;;;;;;;19.98;16.45;;;;;;;-146.58;100.00;69501.63;5029081;28;20631;-64
2024/01/17 01:48:42;;;;;;;23.23;17.35;;;;;;;-146.58;100.00;69501.63;5031049;28;20053;-64
2024/01/17 01:51:10;;;;;;;33.85;20.20;;;;;;;-146.58;100.00;69501.63;5029755;28;20060;-64
2024/01/17 01:53:37;;;;;;;30.00;18.02;;;;;;;-146.58;100.00;69501.63;5030659;28;20022;-64
2024/01/17 01:56:04;;;;;;;23.70;17.20;;;;;;;-146.58;100.00;69501.63;5029762;28;20094;-64
2024/01/17 01:58:32;;;;;;;22.20;18.13;;;;;;;-146.58;100.00;69501.63;5031156;28;20025;-64
2024/01/17 02:00:58;;;;;;;;;;;;;;;-146.58;100.00;69501.63;5029922;28;20041;-64
2024/01/17 02:03:25;;;;;;;24.27;16.95;;;;;;;-146.58;100.00;69501.63;5031072;28;20451;-64
2024/01/17 02:05:51;;;;;;;22.60;14.93;;;;;;;-146.58;100.00;69501.63;5029546;28;20065;-64
2024/01/17 02:08:16;;;;;;;26.88;15.63;;;;;;;-146.58;100.00;69501.63;5030597;28;20064;-64
2024/01/17 02:10:42;;;;;;;24.17;16.23;;;;;;;-146.58;100.00;69501.63;5029434;28;20042;-64
2024/01/17 02:13:08;;;;;;;20.75;16.30;;;;;;;-146.58;100.00;69501.63;5030932;28;20459;-64
2024/01/17 02:15:33;;;;;;;31.70;18.23;;;;;;;-146.58;100.00;69501.63;5028805;28;20057;-64
2024/01/17 02:17:59;;;;;;;24.60;17.00;;;;;;;-146.58;100.00;69501.63;5030938;28;20014;-64
2024/01/17 02:20:25;;;;;;;25.35;16.30;;;;;;;-146.58;100.00;69501.63;5029627;28;20065;-64
2024/01/17 02:22:50;;;;;;;28.17;15.93;;;;;;;-146.58;100.00;69501.63;5030020;28;20048;-64
2024/01/17 02:25:16;;;;;;;20.80;15.77;;;;;;;-146.58;100.00;69501.63;5029480;28;20033;-64
2024/01/17 02:27:41;;;;;;;20.52;16.50;;;;;;;-146.58;100.00;69501.63;5030525;28;20025;-64
2024/01/17 02:30:07;;;;;;;26.85;18.60;;;;;;;-146.58;100.00;69501.63;5028888;28;20037;-64
2024/01/17 02:32:35;;;;;;;25.75;17.05;;;;;;;-146.58;100.00;69501.63;5030393;28;20034;-64
2024/01/17 02:35:01;;;;;;;27.13;19.38;;;;;;;-146.58;100.00;69501.63;5029522;28;20417;-63
2024/01/17 02:37:26;;;;;;;23.38;15.55;;;;;;;-146.58;100.00;69501.63;5030182;28;20099;-63
2024/01/17 02:39:52;;;;;;;27.10;17.73;;;;;;;-146.58;100.00;69501.63;5029106;28;20049;-63
2024/01/17 02:42:17;;;;;;;27.35;16.08;;;;;;;-146.58;100.00;69501.63;5030818;28;20072;-63
2024/01/17 02:44:42;;;;;;;22.77;16.77;;;;;;;-146.58;100.00;69501.63;5028692;28;20385;-65
2024/01/17 02:47:08;;;;;;;21.25;18.90;;;;;;;-146.58;100.00;69501.63;5030543;28;20088;-65
2024/01/17 02:49:33;;;;;;;22.52;15.35;;;;;;;-146.58;100.00;69501.63;5029017;28;20045;-64
2024/01/17 02:51:58;;;;;;;20.00;15.18;;;;;;;-146.58;100.00;69501.63;5030393;28;20037;-63
2024/01/17 02:54:24;;;;;;;20.85;15.02;;;;;;;-146.58;100.00;69501.63;5029060;28;20115;-63
2024/01/17 02:56:49;;;;;;;20.20;17.08;;;;;;;-146.58;100.00;69501.63;5030202;28;20026;-63
2024/01/17 02:59:15;;;;;;;23.17;15.63;;;;;;;-146.58;100.00;69501.63;5029166;28;20045;-64
2024/01/17 03:01:41;;;;;;;22.38;15.77;;;;;;;-146.58;100.00;69501.63;5029926;28;20116;-64
2024/01/17 03:04:06;;;;;;;22.50;16.63;;;;;;;-146.58;100.00;69501.63;5029141;28;20037;-64
2024/01/17 03:06:31;;;;;;;23.98;16.63;;;;;;;-146.58;100.00;69501.63;5030290;28;20029;-63
2024/01/17 03:08:57;;;;;;;19.30;13.82;;;;;;;-146.58;100.00;69501.63;5031494;28;20041;-64
2024/01/17 03:11:22;;;;;;;27.88;15.20;;;;;;;-146.58;100.00;69501.63;5034171;28;20079;-63
2024/01/17 03:13:47;;;;;;;25.80;15.73;;;;;;;-146.58;100.00;69501.63;5032297;28;20504;-64
2024/01/17 03:16:14;;;;;;;21.00;16.02;;;;;;;-146.58;100.00;69501.63;5033808;28;20021;-63
2024/01/17 03:18:39;;;;;;;20.95;14.13;;;;;;;-146.58;100.00;69501.63;5032572;28;20798;-63
2024/01/17 03:21:04;;;;;;;24.73;15.85;;;;;;;-146.58;100.00;69501.63;5034006;28;20026;-63
2024/01/17 03:23:30;;;;;;;20.40;13.65;;;;;;;-146.58;100.00;69501.63;5033760;28;20032;-64
2024/01/17 03:25:55;;;;;;;24.73;14.88;;;;;;;-146.58;100.00;69501.63;5032594;28;20537;-64
2024/01/17 03:28:21;;;;;;;21.45;14.85;;;;;;;-146.58;100.00;69501.63;5033886;28;20017;-64
2024/01/17 03:30:47;;;;;;;21.30;15.20;;;;;;;-146.58;100.00;69501.63;5031766;28;20508;-64
2024/01/17 03:33:13;;;;;;;21.02;13.20;;;;;;;-146.58;100.00;69501.63;5033645;28;20030;-65
2024/01/17 03:35:38;;;;;;;24.88;15.77;;;;;;;-146.58;100.00;69501.63;5031880;28;20040;-65
2024/01/17 03:38:03;;;;;;;25.85;15.20;;;;;;;-146.58;100.00;69501.63;5033491;28;20506;-65
2024/01/17 03:40:29;;;;;;;18.02;15.82;;;;;;;-146.58;100.00;69501.63;5032252;28;20052;-65
2024/01/17 03:42:54;;;;;;;20.67;16.90;;;;;;;-146.58;100.00;69501.63;5033217;28;20017;-65
2024/01/17 03:45:19;;;;;;;22.25;15.60;;;;;;;-146.58;100.00;69501.63;5031636;28;20514;-65
2024/01/17 03:47:45;;;;;;;21.23;15.30;;;;;;;-146.58;100.00;69501.63;5033226;28;20022;-65
2024/01/17 03:50:10;;;;;;;19.20;15.68;;;;;;;-146.58;100.00;69501.63;5032017;28;20049;-66
2024/01/17 03:52:36;;;;;;;16.98;14.43;;;;;;;-146.58;100.00;69501.63;5032836;28;20026;-63
2024/01/17 03:55:01;;;;;;;18.10;14.45;;;;;;;-146.58;100.00;69501.63;5032056;28;20033;-65
2024/01/17 03:57:27;;;;;;;26.15;17.27;;;;;;;-146.58;100.00;69501.63;5033403;28;20040;-65
2024/01/17 03:59:53;;;;;;;21.70;14.85;;;;;;;-146.58;100.00;69501.63;5031250;28;20033;-66
2024/01/17 04:02:18;;;;;;;18.33;14.25;;;;;;;-146.58;100.00;69501.63;5033317;28;20033;-66
2024/01/17 04:04:45;;;;;;;23.27;14.30;;;;;;;-146.58;100.00;69501.63;5031644;28;20033;-66
2024/01/17 04:07:11;;;;;;;25.10;16.15;;;;;;;-146.58;100.00;69501.63;5032931;28;20049;-66
2024/01/17 04:09:36;;;;;;;17.05;14.60;;;;;;;-146.58;100.00;69501.63;5031572;28;20564;-65
2024/01/17 04:12:02;;;;;;;21.70;16.27;;;;;;;-146.58;100.00;69501.63;5033060;28;20436;-66
2024/01/17 04:14:28;;;;;;;18.52;13.77;;;;;;;-146.58;100.00;69501.63;5031352;28;20041;-66
2024/01/17 04:16:53;;;;;;;22.65;15.05;;;;;;;-146.58;100.00;69501.63;5032797;28;20029;-66
2024/01/17 04:19:18;;;;;;;20.33;16.88;;;;;;;-146.58;100.00;69501.63;5030258;28;20044;-65
2024/01/17 04:21:44;;;;;;;15.88;12.80;;;;;;;-146.58;100.00;69501.63;5032450;28;20013;-65
2024/01/17 04:24:09;;;;;;;31.63;15.02;;;;;;;-146.58;100.00;69501.63;5031462;28;20507;-65
2024/01/17 04:26:35;;;;;;;24.73;14.15;;;;;;;-146.58;100.00;69501.63;5032266;28;20083;-65
2024/01/17 04:29:00;;;;;;;16.98;12.68;;;;;;;-146.58;100.00;69501.63;5030962;28;20068;-66
2024/01/17 04:31:27;;;;;;;25.90;15.75;;;;;;;-146.58;100.00;69501.63;5032674;28;20108;-65
2024/01/17 04:33:53;;;;;;;19.92;13.82;;;;;;;-146.58;100.00;69501.63;5031116;28;20033;-65
2024/01/17 04:36:22;;;;;;;24.58;14.57;;;;;;;-146.58;100.00;69501.63;5032480;28;20392;-65
2024/01/17 04:38:48;;;;;;;26.83;14.00;;;;;;;-146.58;100.00;69501.63;5030998;28;20037;-66
2024/01/17 04:41:15;;;;;;;29.90;13.63;;;;;;;-146.58;100.00;69501.63;5032724;28;20405;-66
2024/01/17 04:43:41;;;;;;;17.30;13.35;;;;;;;-146.58;100.00;69501.63;5030282;28;20022;-65
2024/01/17 04:46:09;;;;;;;17.17;13.60;;;;;;;-146.58;100.00;69501.63;5032540;28;20017;-65
2024/01/17 04:48:35;;;;;;;16.33;12.25;;;;;;;-146.58;100.00;69501.63;5030712;28;20071;-65
2024/01/17 04:51:01;;;;;;;22.05;15.35;;;;;;;-146.58;100.00;69501.63;5031963;28;20071;-65
2024/01/17 04:53:26;;;;;;;19.13;12.75;;;;;;;-146.58;100.00;69501.63;5030826;28;20025;-66
2024/01/17 04:55:52;;;;;;;18.05;14.23;;;;;;;-146.58;100.00;69501.63;5032070;28;20075;-66
2024/01/17 04:58:18;;;;;;;21.58;17.45;;;;;;;-146.58;100.00;69501.63;5031776;28;20025;-66
2024/01/17 05:00:45;;;;;;;24.58;14.13;;;;;;;-146.58;100.00;69501.63;5030364;28;20033;-66
2024/01/17 05:03:10;;;;;;;19.48;15.95;;;;;;;-146.58;100.00;69501.63;5032094;28;20503;-66
2024/01/17 05:05:36;;;;;;;19.90;15.25;;;;;;;-146.58;100.00;69501.63;5030020;28;20045;-67
2024/01/17 05:08:02;;;;;;;19.05;14.30;;;;;;;-146.58;100.00;69501.63;5032029;28;20164;-67
2024/01/17 05:10:27;;;;;;;24.38;14.70;;;;;;;-146.58;100.00;69501.63;5030709;28;20544;-67
2024/01/17 05:12:53;;;;;;;18.80;14.88;;;;;;;-146.58;100.00;69501.63;5031158;28;20028;-67
2024/01/17 05:15:18;;;;;;;21.98;13.65;;;;;;;-146.58;100.00;69501.63;5030652;28;20041;-67
2024/01/17 05:17:43;;;;;;;17.52;14.32;;;;;;;-146.58;100.00;69501.63;5031593;28;20021;-68
2024/01/17 05:20:09;;;;;;;26.33;15.18;;;;;;;-146.58;100.00;69501.63;5030081;28;20037;-67
2024/01/17 05:22:39;;;;;;;24.25;14.38;;;;;;;-146.58;100.00;69501.63;5031599;28;20033;-65
2024/01/17 05:25:06;;;;;;;25.38;18.65;;;;;;;-146.58;100.00;69501.63;5030225;28;20451;-65
2024/01/17 05:27:32;;;;;;;25.05;15.93;;;;;;;-146.58;100.00;69501.63;5030902;28;20473;-64
2024/01/17 05:29:57;;;;;;;26.88;15.45;;;;;;;-146.58;100.00;69501.63;5030034;28;20041;-64
2024/01/17 05:32:23;;;;;;;20.95;13.43;;;;;;;-146.58;100.00;69501.63;5031325;28;20029;-64
2024/01/17 05:34:50;;;;;;;17.65;14.73;;;;;;;-146.58;100.00;69501.63;5029786;28;20045;-64
2024/01/17 05:37:16;;;;;;;22.77;16.75;;;;;;;-146.58;100.00;69501.63;5031272;28;20021;-64
2024/01/17 05:39:41;;;;;;;30.73;14.98;;;;;;;-146.58;100.00;69501.63;5029876;28;20508;-64
2024/01/17 05:42:07;;;;;;;23.35;16.05;;;;;;;-146.58;100.00;69501.63;5031332;28;20473;-64
2024/01/17 05:44:32;;;;;;;19.45;15.02;;;;;;;-146.58;100.00;69501.63;5029355;28;20412;-64
2024/01/17 05:46:57;;;;;;;16.42;13.85;;;;;;;-146.58;100.00;69501.63;5031431;28;20044;-65
2024/01/17 05:49:23;;;;;;;25.52;16.75;;;;;;;-146.58;100.00;69501.63;5029588;28;20496;-63
2024/01/17 05:51:49;;;;;;;23.15;16.80;;;;;;;-146.58;100.00;69501.63;5030561;28;20108;-63
2024/01/17 05:54:14;;;;;;;22.80;15.35;;;;;;;-146.58;100.00;69501.63;5029964;28;20083;-63
2024/01/17 05:56:40;;;;;;;27.58;16.23;;;;;;;-146.58;100.00;69501.63;5030601;28;20416;-63
2024/01/17 05:59:05;;;;;;;17.98;15.68;;;;;;;-146.58;100.00;69501.63;5029500;28;20033;-63
2024/01/17 06:01:31;;;;;;;27.17;16.23;;;;;;;-146.58;100.00;69501.63;5030909;28;20022;-63
2024/01/17 06:03:56;;;;;;;28.83;16.33;;;;;;;-146.58;100.00;69501.63;5029778;28;20034;-63
2024/01/17 06:06:21;;;;;;;22.20;14.57;;;;;;;-146.58;100.00;69501.63;5030487;28;20037;-63
2024/01/17 06:08:47;;;;;;;24.10;16.67;;;;;;;-146.58;100.00;69501.63;5029349;28;20033;-63
2024/01/17 06:11:12;;;;;;;20.05;14.63;;;;;;;-146.58;100.00;69501.63;5030960;28;20033;-63
2024/01/17 06:13:38;;;;;;;24.85;15.90;;;;;;;-146.58;100.00;69501.63;5028987;28;20040;-63
2024/01/17 06:16:03;;;;;;;26.25;16.38;;;;;;;-146.58;100.00;69501.63;5030937;28;20017;-63
2024/01/17 06:18:28;;;;;;;26.25;15.60;;;;;;;-146.58;100.00;69501.63;5029561;28;20021;-63
2024/01/17 06:20:54;;;;;;;21.08;16.35;;;;;;;-146.58;100.00;69501.63;5030377;28;20419;-62
2024/01/17 06:23:19;;;;;;;22.77;14.27;;;;;;;-146.58;100.00;69501.63;5030723;28;20037;-62
2024/01/17 06:25:45;;;;;;;24.58;16.83;;;;;;;-146.58;100.00;69501.63;5029138;28;20459;-62
2024/01/17 06:28:10;;;;;;;19.50;15.60;;;;;;;-146.58;100.00;69501.63;5030452;28;20022;-63
2024/01/17 06:30:36;;;;;;;19.35;15.18;;;;;;;-146.58;100.00;69501.63;5029168;28;20400;-63
2024/01/17 06:33:02;;;;;;;23.17;14.13;;;;;;;-146.58;100.00;69501.63;5030690;28;20036;-63
2024/01/17 06:35:27;;;;;;;23.90;15.80;;;;;;;-146.58;100.00;69501.63;5028481;28;20037;-63
2024/01/17 06:37:53;;;;;;;21.40;16.05;;;;;;;-146.58;100.00;69501.63;5030481;28;20033;-63
2024/01/17 06:40:18;;;;;;;20.50;14.85;;;;;;;-146.58;100.00;69501.63;5028662;28;20049;-64
2024/01/17 06:42:43;;;;;;;36.17;17.88;;;;;;;-146.58;100.00;69501.63;5029894;28;20017;-62
2024/01/17 06:45:10;;;;;;;24.65;17.38;;;;;;;-146.58;100.00;69501.63;5033065;28;20037;-65
2024/01/17 06:47:35;;;;;;;27.50;20.10;;;;;;;-146.58;100.00;69501.63;5034169;28;20472;-61
2024/01/17 06:50:01;;;;;;;24.25;17.27;;;;;;;-146.58;100.00;69501.63;5032791;28;20041;-61
2024/01/17 06:52:26;;;;;;;21.70;15.82;;;;;;;-146.58;100.00;69501.63;5034529;28;20022;-61
2024/01/17 06:54:52;;;;;;;21.95;16.75;;;;;;;-146.58;100.00;69501.63;5032793;28;20531;-61
2024/01/17 06:57:17;;;;;;;23.73;16.67;;;;;;;-146.58;100.00;69501.63;5033637;28;20017;-61
2024/01/17 06:59:43;;;;;;;24.70;16.30;;;;;;;-146.58;100.00;69501.63;5032696;28;20041;-61
2024/01/17 07:02:08;;;;;;;25.33;15.60;;;;;;;-146.58;100.00;69501.63;5033073;28;20385;-61
2024/01/17 07:04:34;;;;;;;26.33;17.30;;;;;;;-146.58;100.00;69501.63;5032368;28;20049;-61
2024/01/17 07:06:59;;;;;;;35.30;17.08;;;;;;;-146.58;100.00;69501.63;5033595;28;20021;-61
2024/01/17 07:09:24;;;;;;;24.17;16.00;;;;;;;-146.58;100.00;69501.63;5032923;28;20037;-61
2024/01/17 07:11:50;;;;;;;23.52;17.48;;;;;;;-146.58;100.00;69501.63;5033647;28;20044;-60
2024/01/17 07:14:15;;;;;;;28.27;16.20;;;;;;;-146.58;100.00;69501.63;5032685;28;20103;-60
2024/01/17 07:16:40;;;;;;;27.50;19.70;;;;;;;-146.58;100.00;69501.63;5034010;28;20017;-60
2024/01/17 07:19:06;;;;;;;24.27;16.42;;;;;;;-146.58;100.00;69501.63;5032174;28;20500;-60
2024/01/17 07:21:32;;;;;;;26.88;16.08;;;;;;;-146.58;100.00;69501.63;5033699;28;20025;-60
2024/01/17 07:23:57;;;;;;;26.80;21.70;;;;;;;-146.58;100.00;69501.63;5032777;28;20044;-61
2024/01/17 07:26:22;;;;;;;23.17;17.48;;;;;;;-146.58;100.00;69501.63;5033754;28;20018;-61
2024/01/17 07:28:48;;;;;;;26.55;19.33;;;;;;;-146.58;100.00;69501.63;5031819;28;20045;-61
2024/01/17 07:31:13;;;;;;;25.73;18.23;;;;;;;-146.58;100.00;69501.63;5033856;28;20029;-61
2024/01/17 07:33:39;;;;;;;28.33;20.27;;;;;;;-146.58;100.00;69501.63;5031295;28;20048;-61
2024/01/17 07:36:04;;;;;;;30.75;20.70;;;;;;;-146.58;100.00;69501.63;5033797;28;20322;-61
2024/01/17 07:38:30;;;;;;;28.77;18.60;;;;;;;-146.58;100.00;69501.63;5032062;28;20032;-61
2024/01/17 07:40:56;;;;;;;25.75;19.67;;;;;;;-146.58;100.00;69501.63;5033295;28;20021;-61
2024/01/17 07:43:22;;;;;;;27.88;18.70;;;;;;;-146.58;100.00;69501.63;5033609;28;20025;-61
2024/01/17 07:45:47;;;;;;;24.20;18.60;;;;;;;-146.58;100.00;69501.63;5032054;28;20033;-61
2024/01/17 07:48:12;;;;;;;39.20;20.80;;;;;;;-146.58;100.00;69501.63;5033327;28;20362;-61
2024/01/17 07:50:39;;;;;;;23.70;16.85;;;;;;;-146.58;100.00;69501.63;5031790;28;20400;-61
2024/01/17 07:53:07;;;;;;;21.88;16.20;;;;;;;-146.58;100.00;69501.63;5032984;28;20477;-61
2024/01/17 07:55:32;;;;;;;15.43;13.75;;;;;;;-146.58;100.00;69501.63;5031472;28;20524;-61
2024/01/17 07:57:59;;;;;;;30.40;20.25;;;;;;;-146.58;100.00;69501.63;5033489;28;20018;-61
2024/01/17 08:00:25;;;;;;;33.17;18.27;;;;;;;-146.58;100.00;69501.63;5031895;28;20042;-61
2024/01/17 08:02:50;;;;;;;26.08;17.98;;;;;;;-146.58;100.00;69501.63;5032646;28;20028;-61
2024/01/17 08:05:15;;;;;;;29.65;18.92;;;;;;;-146.58;100.00;69501.63;5031045;28;20041;-61
2024/01/17 08:07:41;;;;;;;34.03;19.60;;;;;;;-146.58;100.00;69501.63;5032158;28;20033;-62
2024/01/17 08:10:06;;;;;;;29.35;19.80;;;;;;;-146.58;100.00;69501.63;5031505;28;20049;-58
2024/01/17 08:12:32;;;;;;;34.13;18.40;;;;;;;-146.58;100.00;69501.63;5032554;28;20036;-60
2024/01/17 08:14:57;;;;;;;22.58;17.98;;;;;;;-146.58;100.00;69501.63;5031686;28;20041;-58
2024/01/17 08:17:23;;;;;;;24.92;16.65;;;;;;;-146.58;100.00;69501.63;5031811;28;20021;-58
2024/01/17 08:19:48;;;;;;;24.20;17.67;;;;;;;-146.58;100.00;69501.63;5030388;28;20033;-58
2024/01/17 08:22:13;;;;;;;24.48;19.58;;;;;;;-146.58;100.00;69501.63;5033107;28;20029;-58
2024/01/17 08:24:41;;;;;;;36.20;18.15;;;;;;;-146.58;100.00;69501.63;5030967;28;20497;-58
2024/01/17 08:27:06;;;;;;;40.10;23.77;;;;;;;-146.58;100.00;69501.63;5032553;28;20032;-58
2024/01/17 08:29:32;;;;;;;34.58;22.33;;;;;;;-146.58;100.00;69501.63;5030645;28;20041;-58
2024/01/17 08:31:57;;;;;;;37.83;24.48;;;;;;;-146.58;100.00;69501.63;5032119;28;20033;-58
2024/01/17 08:34:23;;;;;;;32.15;22.42;;;;;;;-146.58;100.00;69501.63;5030648;28;20049;-58
2024/01/17 08:36:48;;;;;;;34.30;24.38;;;;;;;-146.58;100.00;69501.63;5032023;28;20060;-58
2024/01/17 08:39:15;;;;;;;31.38;21.67;;;;;;;-146.58;100.00;69501.63;5031345;28;20396;-58
2024/01/17 08:41:45;;;;;;;29.80;16.60;;;;;;;-146.58;100.00;69501.63;5032071;28;20024;-58
2024/01/17 08:44:11;;;;;;;32.53;22.23;;;;;;;-146.58;100.00;69501.63;5030898;28;20048;-58
2024/01/17 08:46:44;;;;;;;29.48;22.15;;;;;;;-146.58;100.00;69501.63;5032222;28;20026;-58
2024/01/17 08:49:09;;;;;;;39.65;21.55;;;;;;;-146.58;100.00;69501.63;5030641;28;20056;-58
2024/01/17 08:51:35;;;;;;;38.28;20.00;;;;;;;-146.58;100.00;69501.63;5029542;28;20107;-58
2024/01/17 08:54:00;;;;;;;23.60;17.15;;;;;;;-146.58;100.00;69501.63;5017933;28;20033;-58
2024/01/17 08:56:25;;;;;;;26.05;17.98;;;;;;;-146.58;100.00;69501.63;5012129;28;20022;-58
2024/01/17 08:58:51;;;;;;;30.33;19.92;;;;;;;-146.58;100.00;69501.63;5030369;28;20045;-58
2024/01/17 09:01:17;;;;;;;38.47;20.52;;;;;;;-146.58;100.00;69501.63;5031468;28;20025;-58
2024/01/17 09:03:43;;;;;;;31.20;21.10;;;;;;;-146.58;100.00;69501.63;5029906;28;20037;-59
2024/01/17 09:06:09;;;;;;;29.35;16.35;;;;;;;-146.58;100.00;69501.63;5031027;28;20032;-58
2024/01/17 09:08:34;;;;;;;26.10;17.95;;;;;;;-146.58;100.00;69501.63;5029471;28;20033;-58
2024/01/17 09:10:59;;;;;;;23.65;17.83;;;;;;;-146.58;100.00;69501.63;5030997;28;20477;-58
2024/01/17 09:13:25;;;;;;;23.10;16.00;;;;;;;-146.58;100.00;69501.63;5031016;28;20021;-58
2024/01/17 09:15:50;;;;;;;25.80;16.98;;;;;;;-146.58;100.00;69501.63;5031406;28;20075;-58
2024/01/17 09:18:17;;;;;;;19.40;15.32;;;;;;;-146.58;100.00;69501.63;5031362;28;20021;-58
2024/01/17 09:20:46;;;;;;;25.58;18.75;;;;;;;-146.58;100.00;69501.63;5029051;28;20413;-58
2024/01/17 09:23:11;;;;;;;36.53;20.52;;;;;;;-146.58;100.00;69501.63;5031617;28;20473;-58
2024/01/17 09:25:38;;;;;;;26.00;16.40;;;;;;;-146.58;100.00;69501.63;5029836;28;20044;-58
2024/01/17 09:28:04;;;;;;;31.02;18.80;;;;;;;-146.58;100.00;69501.63;5031754;28;20044;-58
2024/01/17 09:30:29;;;;;;;32.65;18.95;;;;;;;-146.58;100.00;69501.63;5030171;28;20045;-58
2024/01/17 09:32:55;;;;;;;29.25;19.35;;;;;;;-146.58;100.00;69501.63;5031197;28;20021;-58
2024/01/17 09:35:20;;;;;;;27.25;17.40;;;;;;;-146.58;100.00;69501.63;5030170;28;20489;-58
2024/01/17 09:37:45;;;;;;;30.75;18.35;;;;;;;-146.58;100.00;69501.63;5031208;28;20029;-58
2024/01/17 09:40:13;;;;;;;22.48;17.17;;;;;;;-146.58;100.00;69501.63;5029798;28;20037;-58
2024/01/17 09:42:40;;;;;;;29.20;17.63;;;;;;;-146.58;100.00;69501.63;5031172;28;20029;-58
2024/01/17 09:45:08;;;;;;;24.60;16.75;;;;;;;-146.58;100.00;69501.63;5029981;28;20029;-58
2024/01/17 09:47:36;;;;;;;31.88;18.38;;;;;;;-146.58;100.00;69501.63;5030716;28;20038;-58
2024/01/17 09:50:02;;;;;;;26.13;18.08;;;;;;;-146.58;100.00;69501.63;5029916;28;20040;-58
2024/01/17 09:52:29;;;;;;;30.42;17.70;;;;;;;-146.58;100.00;69501.63;5031183;28;20025;-58
2024/01/17 09:54:55;;;;;;;26.58;16.85;;;;;;;-146.58;100.00;69501.63;5029395;28;20033;-58
2024/01/17 09:57:25;;;;;;;36.95;19.50;;;;;;;-146.58;100.00;69501.63;5031231;28;20021;-58
2024/01/17 10:00:07;;;;;;;26.85;17.27;;;;;;;-146.58;100.00;69501.63;5028751;28;20080;-58
2024/01/17 10:02:35;;;;;;;25.90;16.98;;;;;;;-146.58;100.00;69501.63;5010856;28;20025;-58
2024/01/17 10:05:04;;;;;;;28.90;17.33;;;;;;;-146.58;100.00;69501.63;5017368;28;20041;-58
2024/01/17 10:07:29;;;;;;;20.13;16.48;;;;;;;-146.58;100.00;69501.63;5030002;28;20117;-58
2024/01/17 10:09:54;;;;;;;30.70;17.33;;;;;;;-146.58;100.00;69501.63;5029069;28;20033;-58
2024/01/17 10:12:20;;;;;;;27.95;18.75;;;;;;;-146.58;100.00;69501.63;5030346;28;20044;-59
2024/01/17 10:14:46;;;;;;;26.15;17.73;;;;;;;-146.58;100.00;69501.63;5029047;28;20049;-58
2024/01/17 10:17:11;;;;;;;25.92;15.27;;;;;;;-146.58;100.00;69501.63;5030354;28;20063;-58
2024/01/17 10:19:37;;;;;;;34.03;17.02;;;;;;;-146.58;100.00;69501.63;5029217;28;20131;-58
2024/01/17 10:22:04;;;;;;;24.92;17.50;;;;;;;-146.58;100.00;69501.63;5030696;28;20025;-58
2024/01/17 10:24:37;;;;;;;24.02;17.15;;;;;;;-146.58;100.00;69501.63;5029130;28;20428;-58
2024/01/17 10:27:03;;;;;;;26.77;18.38;;;;;;;-146.58;100.00;69501.63;5031014;28;20169;-58
2024/01/17 10:29:30;;;;;;;21.58;15.52;;;;;;;-146.58;100.00;69501.63;5029323;28;20069;-58
2024/01/17 10:31:59;;;;;;;20.67;16.02;;;;;;;-146.58;100.00;69501.63;5030102;28;20503;-58
2024/01/17 10:34:30;;;;;;;27.55;16.08;;;;;;;-146.58;100.00;69501.63;5029368;28;20049;-58
2024/01/17 10:36:56;;;;;;;26.40;16.95;;;;;;;-146.58;100.00;69501.63;5028667;28;20024;-58
2024/01/17 10:39:23;;;;;;;27.05;16.92;;;;;;;-146.58;100.00;69501.63;5020176;28;20038;-58
2024/01/17 10:41:51;;;;;;;27.27;16.83;;;;;;;-146.58;100.00;69501.63;5010717;28;20026;-58
2024/01/17 10:44:23;;;;;;;26.15;17.67;;;;;;;-146.58;100.00;69501.63;5025167;28;20496;-58
2024/01/17 10:46:52;;;;;;;29.25;18.65;;;;;;;-146.58;100.00;69501.63;5029683;28;20120;-58
2024/01/17 10:49:19;;;;;;;24.65;15.35;;;;;;;-146.58;100.00;69501.63;5029165;28;20089;-58